Time;durP1;ratioP1;P1;durP2;ratioP2;P2;SDS_P1;SDS_P2;PMS_P1;PMS_P2;Temp;Humidity;BMP_temperature;BMP_pressure;BME280_temperature;BME280_humidity;BME280_pressure;Samples;Min_cycle;Max_cycle;Signal;HPM_P1;HPM_P2
2023/01/18 00:01:58;;;;;;;;;;;4.60;93.00;;;;;;5018920;28;19956;-76
2023/01/18 00:04:25;;;;;;;;;;;4.60;93.00;;;;;;5018561;28;19929;-76
2023/01/18 00:06:51;;;;;;;;;;;4.50;93.00;;;;;;5019479;28;19928;-76
2023/01/18 00:09:18;;;;;;;;;;;4.50;93.00;;;;;;5017648;28;19929;-76
2023/01/18 00:11:44;;;;;;;;;;;4.50;93.00;;;;;;5019209;28;19936;-76
2023/01/18 00:14:11;;;;;;;;;;;4.50;93.10;;;;;;5021750;28;19929;-76
2023/01/18 00:16:38;;;;;;;;;;;4.50;93.10;;;;;;5013426;28;20319;-76
2023/01/18 00:19:11;;;;;;;;;;;4.50;93.10;;;;;;5019018;28;19972;-76
2023/01/18 00:21:38;;;;;;;;;;;4.40;93.10;;;;;;5019957;28;20024;-76
2023/01/18 00:24:05;;;;;;;;;;;4.50;93.10;;;;;;5014912;28;19933;-75
2023/01/18 00:26:32;;;;;;;;;;;4.40;93.10;;;;;;5020508;28;21257;-76
2023/01/18 00:28:58;;;;;;;;;;;4.40;93.10;;;;;;5021639;28;19995;-76
2023/01/18 00:31:25;;;;;;;;;;;4.40;93.20;;;;;;5012822;28;19936;-76
2023/01/18 00:33:51;;;;;;;;;;;4.40;93.20;;;;;;5019870;28;19929;-76
2023/01/18 00:36:19;;;;;;;;;;;4.40;93.20;;;;;;5023728;28;19936;-76
2023/01/18 00:38:50;;;;;;;;;;;4.40;93.20;;;;;;5023237;28;19929;-76
2023/01/18 00:41:16;;;;;;;;;;;4.40;93.30;;;;;;5021301;28;19933;-76
2023/01/18 00:43:42;;;;;;;;;;;4.40;93.30;;;;;;5022117;28;19937;-77
2023/01/18 00:46:09;;;;;;;;;;;4.40;93.30;;;;;;5020167;28;20362;-76
2023/01/18 00:48:37;;;;;;;;;;;4.40;93.30;;;;;;5017946;28;19925;-76
2023/01/18 00:51:04;;;;;;;;;;;4.30;93.30;;;;;;5015961;28;19975;-76
2023/01/18 00:53:32;;;;;;;;;;;4.40;93.40;;;;;;5022910;28;19929;-76
2023/01/18 00:55:58;;;;;;;;;;;4.30;93.40;;;;;;5020454;28;20029;-76
2023/01/18 00:58:25;;;;;;;;;;;4.30;93.40;;;;;;5018908;28;19952;-76
2023/01/18 01:00:52;;;;;;;;;;;4.30;93.40;;;;;;5018537;28;20617;-76
2023/01/18 01:03:19;;;;;;;;;;;4.30;93.40;;;;;;5021517;28;19928;-76
2023/01/18 01:08:29;;;;;;;;;;;4.30;93.50;;;;;;5017355;28;19932;-76
2023/01/18 01:11:04;;;;;;;;;;;4.30;93.50;;;;;;5020103;28;19929;-76
2023/01/18 01:27:13;;;;;;;;;;;4.20;93.60;;;;;;5023310;28;20067;-76
2023/01/18 01:29:40;;;;;;;;;;;4.20;93.60;;;;;;5022347;28;20020;-76
2023/01/18 01:32:06;;;;;;;;;;;4.20;93.60;;;;;;5020987;28;19960;-77
2023/01/18 01:34:33;;;;;;;;;;;4.20;93.60;;;;;;5021908;28;19959;-77
2023/01/18 01:36:59;;;;;;;;;;;4.20;93.70;;;;;;5019532;28;19929;-76
2023/01/18 01:39:26;;;;;;;;;;;4.20;93.70;;;;;;5019796;28;19936;-76
2023/01/18 01:41:53;;;;;;;;;;;4.20;93.70;;;;;;5017772;28;19937;-76
2023/01/18 01:44:37;;;;;;;;;;;4.10;93.70;;;;;;5020781;28;19933;-76
2023/01/18 01:47:07;;;;;;;;;;;4.10;93.70;;;;;;5015206;28;19933;-76
2023/01/18 01:49:38;;;;;;;;;;;4.20;93.80;;;;;;5019315;28;19988;-76
2023/01/18 01:52:06;;;;;;;;;;;4.10;93.70;;;;;;5017692;28;20482;-76
2023/01/18 01:54:34;;;;;;;;;;;4.10;93.80;;;;;;5017475;28;19929;-76
2023/01/18 01:57:04;;;;;;;;;;;4.10;93.80;;;;;;5017382;28;19929;-76
2023/01/18 01:59:31;;;;;;;;;;;4.10;93.80;;;;;;5015880;28;19956;-76
2023/01/18 02:01:58;;;;;;;;;;;4.10;93.80;;;;;;5008907;28;19949;-76
2023/01/18 02:04:26;;;;;;;;;;;4.10;93.80;;;;;;5017458;28;19998;-76
2023/01/18 02:06:52;;;;;;;;;;;4.10;93.90;;;;;;5019160;28;19933;-75
2023/01/18 02:09:21;;;;;;;;;;;4.10;93.90;;;;;;5015817;28;20312;-76
2023/01/18 02:11:50;;;;;;;;;;;4.10;93.90;;;;;;5019849;28;19933;-76
2023/01/18 02:14:16;;;;;;;;;;;4.10;93.90;;;;;;5017377;28;19929;-76
2023/01/18 02:16:48;;;;;;;;;;;4.00;93.90;;;;;;5017390;28;19929;-76
2023/01/18 02:19:23;;;;;;;;;;;4.00;93.90;;;;;;5016851;28;19933;-77
2023/01/18 02:21:54;;;;;;;;;;;4.00;93.90;;;;;;5019637;28;19936;-76
2023/01/18 02:24:36;;;;;;;;;;;4.00;93.90;;;;;;5016778;28;20024;-76
2023/01/18 02:27:04;;;;;;;;;;;4.00;94.00;;;;;;5011870;28;20462;-76
2023/01/18 02:29:45;;;;;;;;;;;4.00;94.00;;;;;;5015221;28;20045;-75
2023/01/18 02:32:21;;;;;;;;;;;4.00;94.00;;;;;;5014583;28;19930;-75
2023/01/18 02:34:49;;;;;;;;;;;4.00;94.00;;;;;;5019625;28;19933;-76
2023/01/18 02:37:20;;;;;;;;;;;4.00;94.00;;;;;;5023301;28;19933;-75
2023/01/18 02:39:51;;;;;;;;;;;4.00;94.10;;;;;;5013676;28;19929;-76
2023/01/18 02:47:53;;;;;;;;;;;3.90;94.10;;;;;;5012338;28;19941;-76
2023/01/18 02:50:21;;;;;;;;;;;3.90;94.10;;;;;;5020773;28;20390;-76
2023/01/18 02:52:49;;;;;;;;;;;3.90;94.10;;;;;;5020535;28;19933;-75
2023/01/18 02:55:19;;;;;;;;;;;3.90;94.20;;;;;;5021182;28;19984;-76
2023/01/18 02:57:47;;;;;;;;;;;3.90;94.20;;;;;;5020577;28;19933;-76
2023/01/18 03:00:17;;;;;;;;;;;3.90;94.20;;;;;;5021895;28;19929;-75
2023/01/18 03:02:47;;;;;;;;;;;3.90;94.20;;;;;;5015440;28;20387;-76
2023/01/18 03:05:13;;;;;;;;;;;3.90;94.20;;;;;;5017517;28;20574;-76
2023/01/18 03:07:43;;;;;;;;;;;3.90;94.20;;;;;;5015504;28;19925;-76
2023/01/18 03:10:11;;;;;;;;;;;3.90;94.30;;;;;;5016466;28;19929;-76
2023/01/18 03:12:45;;;;;;;;;;;3.80;94.20;;;;;;5021274;28;19932;-76
2023/01/18 03:15:16;;;;;;;;;;;3.80;94.30;;;;;;5015813;28;20031;-76
2023/01/18 03:17:45;;;;;;;;;;;3.80;94.30;;;;;;5017687;28;19934;-76
2023/01/18 03:20:15;;;;;;;;;;;3.80;94.30;;;;;;5015835;28;19944;-75
2023/01/18 03:25:32;;;;;;;;;;;3.80;94.30;;;;;;5012729;28;19955;-75
2023/01/18 03:33:47;;;;;;;;;;;3.80;94.40;;;;;;5018950;28;19947;-77
2023/01/18 03:36:20;;;;;;;;;;;3.80;94.40;;;;;;5014458;28;19939;-72
2023/01/18 03:38:48;;;;;;;;;;;3.80;94.40;;;;;;5017137;28;19933;-72
2023/01/18 03:41:16;;;;;;;;;;;3.70;94.40;;;;;;5018194;28;19944;-73
2023/01/18 03:43:44;;;;;;;;;;;3.70;94.40;;;;;;5014038;28;19941;-73
2023/01/18 03:46:11;;;;;;;;;;;3.70;94.50;;;;;;5021245;28;20579;-72
2023/01/18 03:48:38;;;;;;;;;;;3.70;94.50;;;;;;5014273;28;20322;-72
2023/01/18 03:51:08;;;;;;;;;;;3.80;94.50;;;;;;5018766;28;20349;-72
2023/01/18 03:53:39;;;;;;;;;;;3.70;94.50;;;;;;5015741;28;19933;-72
2023/01/18 03:56:09;;;;;;;;;;;3.70;94.50;;;;;;5019369;28;20030;-72
2023/01/18 03:58:36;;;;;;;;;;;3.70;94.50;;;;;;5020356;28;19937;-72
2023/01/18 04:01:03;;;;;;;;;;;3.70;94.60;;;;;;5018291;28;19944;-72
2023/01/18 04:03:30;;;;;;;;;;;3.70;94.60;;;;;;5019276;28;19969;-73
2023/01/18 04:05:57;;;;;;;;;;;3.60;94.50;;;;;;5019673;28;19959;-72
2023/01/18 04:08:24;;;;;;;;;;;3.70;94.60;;;;;;5015652;28;19999;-73
2023/01/18 04:10:51;;;;;;;;;;;3.60;94.60;;;;;;5017068;28;19929;-72
2023/01/18 04:13:18;;;;;;;;;;;3.60;94.60;;;;;;5026358;28;19932;-73
2023/01/18 04:15:45;;;;;;;;;;;3.60;94.60;;;;;;5022683;28;19951;-73
2023/01/18 04:18:11;;;;;;;;;;;3.60;94.60;;;;;;5019805;28;20394;-73
2023/01/18 04:20:38;;;;;;;;;;;3.60;94.60;;;;;;5019937;28;19983;-72
2023/01/18 04:23:04;;;;;;;;;;;3.60;94.60;;;;;;5021219;28;19975;-72
2023/01/18 04:25:31;;;;;;;;;;;3.60;94.70;;;;;;5015680;28;19983;-73
2023/01/18 04:27:58;;;;;;;;;;;3.60;94.70;;;;;;5018570;28;19936;-73
2023/01/18 04:30:26;;;;;;;;;;;3.60;94.70;;;;;;5013085;28;19940;-73
2023/01/18 04:32:52;;;;;;;;;;;3.60;94.70;;;;;;5020061;28;19929;-73
2023/01/18 04:35:19;;;;;;;;;;;3.60;94.70;;;;;;5025936;28;19940;-73
2023/01/18 04:37:50;;;;;;;;;;;3.60;94.70;;;;;;5027600;28;19929;-73
2023/01/18 04:40:17;;;;;;;;;;;3.60;94.70;;;;;;5019501;28;19929;-72
2023/01/18 04:42:43;;;;;;;;;;;3.50;94.70;;;;;;5019074;28;19941;-73
2023/01/18 04:45:12;;;;;;;;;;;3.50;94.70;;;;;;5019977;28;19937;-73
2023/01/18 04:47:39;;;;;;;;;;;3.50;94.70;;;;;;5018875;28;19983;-73
2023/01/18 04:50:07;;;;;;;;;;;3.50;94.70;;;;;;5018954;28;19933;-73
2023/01/18 04:52:33;;;;;;;;;;;3.50;94.70;;;;;;5021704;28;20020;-73
2023/01/18 04:55:00;;;;;;;;;;;3.50;94.70;;;;;;5023372;28;19933;-73
2023/01/18 04:57:26;;;;;;;;;;;3.50;94.80;;;;;;5021653;28;19957;-73
2023/01/18 04:59:53;;;;;;;;;;;3.50;94.80;;;;;;5020345;28;20656;-73
2023/01/18 05:02:21;;;;;;;;;;;3.50;94.80;;;;;;5019474;28;20558;-73
2023/01/18 05:04:47;;;;;;;;;;;3.50;94.80;;;;;;5024492;28;19936;-73
2023/01/18 05:07:14;;;;;;;;;;;3.50;94.80;;;;;;5021006;28;20020;-72
2023/01/18 05:09:41;;;;;;;;;;;3.50;94.80;;;;;;5022937;28;19929;-73
2023/01/18 05:12:07;;;;;;;;;;;3.50;94.80;;;;;;5021674;28;19929;-73
2023/01/18 05:14:34;;;;;;;;;;;3.50;94.80;;;;;;5022152;28;19928;-72
2023/01/18 05:17:00;;;;;;;;;;;3.40;94.80;;;;;;5025470;28;19936;-73
2023/01/18 05:19:29;;;;;;;;;;;3.50;94.90;;;;;;5013579;28;19929;-73
2023/01/18 05:21:55;;;;;;;;;;;3.40;94.80;;;;;;5022172;28;20524;-73
2023/01/18 05:24:22;;;;;;;;;;;3.40;94.90;;;;;;5018291;28;19936;-73
2023/01/18 05:26:48;;;;;;;;;;;3.40;94.90;;;;;;5023723;28;19929;-73
2023/01/18 05:29:15;;;;;;;;;;;3.40;94.90;;;;;;5019887;28;19929;-73
2023/01/18 05:31:42;;;;;;;;;;;3.40;94.90;;;;;;5019250;28;20295;-73
2023/01/18 05:34:08;;;;;;;;;;;3.40;94.90;;;;;;5025196;28;19936;-73
2023/01/18 05:36:36;;;;;;;;;;;3.40;94.90;;;;;;5020472;28;19929;-73
2023/01/18 05:39:03;;;;;;;;;;;3.40;94.90;;;;;;5023435;28;19929;-73
2023/01/18 05:41:29;;;;;;;;;;;3.40;95.00;;;;;;5022330;28;19933;-73
2023/01/18 05:43:56;;;;;;;;;;;3.40;95.00;;;;;;5018174;28;19933;-73
2023/01/18 05:46:22;;;;;;;;;;;3.40;95.00;;;;;;5016645;28;19951;-72
2023/01/18 05:48:49;;;;;;;;;;;3.30;95.00;;;;;;5018853;28;19929;-72
2023/01/18 05:51:15;;;;;;;;;;;3.30;95.00;;;;;;5023164;28;19925;-72
2023/01/18 05:53:43;;;;;;;;;;;3.40;95.00;;;;;;5020909;28;19933;-72
2023/01/18 05:56:10;;;;;;;;;;;3.30;95.00;;;;;;5025490;28;19929;-74
2023/01/18 05:58:37;;;;;;;;;;;3.20;94.30;;;;;;5024862;28;19936;-74
2023/01/18 06:01:03;;;;;;;;;;;3.10;94.80;;;;;;5016018;28;20411;-74
2023/01/18 06:03:30;;;;;;;;;;;3.10;95.10;;;;;;5007537;28;19937;-74
2023/01/18 06:05:57;;;;;;;;;;;3.10;95.40;;;;;;5015652;28;19933;-74
2023/01/18 06:08:24;;;;;;;;;;;3.00;95.50;;;;;;5017818;28;19991;-74
2023/01/18 06:10:55;;;;;;;;;;;3.00;95.50;;;;;;5024475;28;19933;-74
2023/01/18 06:13:22;;;;;;;;;;;3.10;95.60;;;;;;5017329;28;20281;-74
2023/01/18 06:15:49;;;;;;;;;;;3.10;95.50;;;;;;5021262;28;19929;-74
2023/01/18 06:18:15;;;;;;;;;;;3.10;95.50;;;;;;5019292;28;20025;-74
2023/01/18 06:20:42;;;;;;;;;;;3.10;95.50;;;;;;5024353;28;20327;-73
2023/01/18 06:23:08;;;;;;;;;;;3.10;95.40;;;;;;5015770;28;20433;-74
2023/01/18 06:25:35;;;;;;;;;;;3.10;95.40;;;;;;5019268;28;19929;-74
2023/01/18 06:28:03;;;;;;;;;;;3.10;95.40;;;;;;5013297;28;19933;-74
2023/01/18 06:30:30;;;;;;;;;;;3.20;95.40;;;;;;5018125;28;20513;-74
2023/01/18 06:32:56;;;;;;;;;;;3.20;95.40;;;;;;5018828;28;20418;-74
2023/01/18 06:35:23;;;;;;;;;;;3.20;95.40;;;;;;5021534;28;19983;-74
2023/01/18 06:37:51;;;;;;;;;;;3.10;95.40;;;;;;5019610;28;20413;-74
2023/01/18 06:40:18;;;;;;;;;;;3.10;95.40;;;;;;5014776;28;19930;-74
2023/01/18 06:42:47;;;;;;;;;;;3.20;95.40;;;;;;5016003;28;19935;-73
2023/01/18 06:45:18;;;;;;;;;;;3.20;95.40;;;;;;5020318;28;19983;-74
2023/01/18 06:47:45;;;;;;;;;;;3.10;95.40;;;;;;5017184;28;20800;-74
2023/01/18 06:50:11;;;;;;;;;;;3.10;95.40;;;;;;5016697;28;19930;-74
2023/01/18 06:52:38;;;;;;;;;;;3.10;95.40;;;;;;5014755;28;19932;-74
2023/01/18 06:55:05;;;;;;;;;;;3.20;95.50;;;;;;5018097;28;19955;-73
2023/01/18 06:57:31;;;;;;;;;;;3.10;95.40;;;;;;5017235;28;19987;-74
2023/01/18 07:00:00;;;;;;;;;;;3.10;95.40;;;;;;5016319;28;19930;-74
2023/01/18 07:02:28;;;;;;;;;;;3.10;95.40;;;;;;5015213;28;19930;-74
2023/01/18 07:04:55;;;;;;;;;;;3.10;95.50;;;;;;5011408;28;19929;-74
2023/01/18 07:07:22;;;;;;;;;;;3.10;95.50;;;;;;5022344;28;19936;-74
2023/01/18 07:09:48;;;;;;;;;;;3.10;95.50;;;;;;5021001;28;20434;-73
2023/01/18 07:12:15;;;;;;;;;;;3.10;95.50;;;;;;5019716;28;19937;-73
2023/01/18 07:14:41;;;;;;;;;;;3.10;95.50;;;;;;5020148;28;19947;-73
2023/01/18 07:17:08;;;;;;;;;;;3.10;95.50;;;;;;5020413;28;19925;-73
2023/01/18 07:19:36;;;;;;;;;;;3.10;95.60;;;;;;5021692;28;19933;-73
2023/01/18 07:22:02;;;;;;;;;;;3.10;95.50;;;;;;5023535;28;20027;-74
2023/01/18 07:24:29;;;;;;;;;;;3.00;95.50;;;;;;5022604;28;19932;-73
2023/01/18 07:26:58;;;;;;;;;;;3.00;95.50;;;;;;5019028;28;19936;-73
2023/01/18 07:29:25;;;;;;;;;;;3.10;95.60;;;;;;5023881;28;19933;-74
2023/01/18 07:31:51;;;;;;;;;;;3.10;95.60;;;;;;5016529;28;20493;-73
2023/01/18 07:34:18;;;;;;;;;;;3.00;95.60;;;;;;5018876;28;19928;-74
2023/01/18 07:36:46;;;;;;;;;;;3.00;95.60;;;;;;5012599;28;19933;-73
2023/01/18 07:39:12;;;;;;;;;;;3.00;95.60;;;;;;5017454;28;19936;-73
2023/01/18 07:41:39;;;;;;;;;;;3.00;95.60;;;;;;5019451;28;19933;-73
2023/01/18 07:44:06;;;;;;;;;;;3.00;95.60;;;;;;5022194;28;20561;-73
2023/01/18 07:46:32;;;;;;;;;;;3.00;95.60;;;;;;5017216;28;19941;-73
2023/01/18 07:49:01;;;;;;;;;;;3.00;95.60;;;;;;5020775;28;19929;-73
2023/01/18 07:51:27;;;;;;;;;;;3.00;95.60;;;;;;5023962;28;19929;-73
2023/01/18 07:53:56;;;;;;;;;;;3.00;95.70;;;;;;5021384;28;19936;-73
2023/01/18 07:56:24;;;;;;;;;;;3.00;95.70;;;;;;5021270;28;20059;-73
2023/01/18 07:58:51;;;;;;;;;;;3.00;95.70;;;;;;5021465;28;19937;-73
2023/01/18 08:01:19;;;;;;;;;;;3.00;95.70;;;;;;5017398;28;20565;-73
2023/01/18 08:03:47;;;;;;;;;;;3.00;95.70;;;;;;5016183;28;20314;-73
2023/01/18 08:06:15;;;;;;;;;;;3.00;95.70;;;;;;5015516;28;19929;-73
2023/01/18 08:08:42;;;;;;;;;;;2.90;95.70;;;;;;5010525;28;19933;-73
2023/01/18 08:11:11;;;;;;;;;;;2.90;95.70;;;;;;5016477;28;19933;-73
2023/01/18 08:13:37;;;;;;;;;;;2.90;95.70;;;;;;5017713;28;19937;-73
2023/01/18 08:16:05;;;;;;;;;;;2.90;95.70;;;;;;5021807;28;20346;-73
2023/01/18 08:18:32;;;;;;;;;;;2.90;95.80;;;;;;5017395;28;19937;-73
2023/01/18 08:20:59;;;;;;;;;;;2.90;95.70;;;;;;5019427;28;19936;-73
2023/01/18 08:23:25;;;;;;;;;;;2.90;95.70;;;;;;5016424;28;19930;-73
2023/01/18 08:25:52;;;;;;;;;;;2.90;95.70;;;;;;5021614;28;19932;-74
2023/01/18 08:28:20;;;;;;;;;;;2.90;95.70;;;;;;5021343;28;19933;-73
2023/01/18 08:30:47;;;;;;;;;;;2.90;95.70;;;;;;5022959;28;19936;-73
2023/01/18 08:33:14;;;;;;;;;;;2.90;95.70;;;;;;5018346;28;19933;-73
2023/01/18 08:35:41;;;;;;;;;;;2.90;95.80;;;;;;5021524;28;19933;-73
2023/01/18 08:38:08;;;;;;;;;;;2.90;95.80;;;;;;5019870;28;20434;-73
2023/01/18 08:40:35;;;;;;;;;;;2.90;95.80;;;;;;5021581;28;20023;-73
2023/01/18 08:43:02;;;;;;;;;;;2.90;95.80;;;;;;5021637;28;19929;-73
2023/01/18 08:45:30;;;;;;;;;;;2.90;95.80;;;;;;5015151;28;19929;-74
2023/01/18 08:47:57;;;;;;;;;;;2.90;95.80;;;;;;5016769;28;20646;-73
2023/01/18 08:50:24;;;;;;;;;;;2.90;95.80;;;;;;5020428;28;20023;-73
2023/01/18 08:52:51;;;;;;;;;;;2.80;95.80;;;;;;5016621;28;20478;-73
2023/01/18 08:55:18;;;;;;;;;;;2.90;95.80;;;;;;5014956;28;20007;-73
2023/01/18 08:57:44;;;;;;;;;;;2.90;95.80;;;;;;5023836;28;19925;-73
2023/01/18 09:00:11;;;;;;;;;;;2.90;95.80;;;;;;5021348;28;20351;-74
2023/01/18 09:02:39;;;;;;;;;;;2.90;95.80;;;;;;5017292;28;20019;-73
2023/01/18 09:05:06;;;;;;;;;;;2.90;95.80;;;;;;5015546;28;19933;-73
2023/01/18 09:07:33;;;;;;;;;;;2.90;95.80;;;;;;5013023;28;19929;-73
2023/01/18 09:09:59;;;;;;;;;;;2.90;95.80;;;;;;5017396;28;19994;-74
2023/01/18 09:12:26;;;;;;;;;;;2.90;95.80;;;;;;5012309;28;20406;-73
2023/01/18 09:14:52;;;;;;;;;;;2.90;95.80;;;;;;5019799;28;19929;-73
2023/01/18 09:17:20;;;;;;;;;;;2.90;95.80;;;;;;5021292;28;19933;-73
2023/01/18 09:19:47;;;;;;;;;;;2.90;95.80;;;;;;5026074;28;19925;-73
2023/01/18 09:22:14;;;;;;;;;;;2.90;95.80;;;;;;5018421;28;19937;-73
2023/01/18 09:24:42;;;;;;;;;;;2.90;95.90;;;;;;5016584;28;20342;-74
2023/01/18 09:27:08;;;;;;;;;;;2.90;95.80;;;;;;5017710;28;20370;-73
2023/01/18 09:29:35;;;;;;;;;;;2.90;95.80;;;;;;5021173;28;20417;-73
2023/01/18 09:32:01;;;;;;;;;;;2.90;95.80;;;;;;5011854;28;19929;-73
2023/01/18 09:34:28;;;;;;;;;;;2.90;95.80;;;;;;5019454;28;19936;-73
2023/01/18 09:36:56;;;;;;;;;;;2.80;95.80;;;;;;5018255;28;19936;-73
2023/01/18 09:39:22;;;;;;;;;;;2.90;95.80;;;;;;5013841;28;19975;-73
2023/01/18 09:41:51;;;;;;;;;;;2.90;95.80;;;;;;5021934;28;20449;-73
2023/01/18 09:44:21;;;;;;;;;;;2.80;95.80;;;;;;5019439;28;19929;-73
2023/01/18 09:46:49;;;;;;;;;;;2.90;95.80;;;;;;5017259;28;19940;-73
2023/01/18 09:49:18;;;;;;;;;;;2.90;95.80;;;;;;5019598;28;19925;-73
2023/01/18 09:51:50;;;;;;;;;;;2.90;95.90;;;;;;5023904;28;19936;-73
2023/01/18 09:54:24;;;;;;;;;;;2.90;95.80;;;;;;5021837;28;20036;-73
2023/01/18 09:56:54;;;;;;;;;;;2.90;95.80;;;;;;5025581;28;20003;-73
2023/01/18 09:59:24;;;;;;;;;;;2.90;95.80;;;;;;5023613;28;20410;-73
2023/01/18 10:01:51;;;;;;;;;;;2.90;95.80;;;;;;5018914;28;20039;-73
2023/01/18 10:04:21;;;;;;;;;;;2.90;95.90;;;;;;5017953;28;20468;-73
2023/01/18 10:06:48;;;;;;;;;;;2.90;95.80;;;;;;5018203;28;19972;-73
2023/01/18 10:09:17;;;;;;;;;;;2.90;95.90;;;;;;5022469;28;19959;-73
2023/01/18 10:11:47;;;;;;;;;;;2.90;95.90;;;;;;5018850;28;19992;-73
2023/01/18 10:14:17;;;;;;;;;;;2.90;95.90;;;;;;5023445;28;19936;-72
2023/01/18 10:16:48;;;;;;;;;;;2.90;95.90;;;;;;5013277;28;19929;-72
2023/01/18 10:19:16;;;;;;;;;;;2.90;95.90;;;;;;5022042;28;19929;-72
2023/01/18 10:21:49;;;;;;;;;;;2.90;95.90;;;;;;5020900;28;20057;-73
2023/01/18 10:24:30;;;;;;;;;;;2.90;96.20;;;;;;5016123;28;19956;-72
2023/01/18 10:27:03;;;;;;;;;;;3.00;95.90;;;;;;5009943;28;19937;-72
2023/01/18 10:29:37;;;;;;;;;;;3.00;95.90;;;;;;5016297;28;19928;-73
2023/01/18 10:32:07;;;;;;;;;;;3.00;95.90;;;;;;5014773;28;19936;-73
2023/01/18 10:34:34;;;;;;;;;;;3.00;95.90;;;;;;5012247;28;19983;-72
2023/01/18 10:37:13;;;;;;;;;;;3.00;95.90;;;;;;5013999;28;19929;-72
2023/01/18 10:39:41;;;;;;;;;;;3.00;95.90;;;;;;5019025;28;19930;-72
2023/01/18 10:42:16;;;;;;;;;;;3.00;95.90;;;;;;5016664;28;20020;-72
2023/01/18 10:44:42;;;;;;;;;;;3.00;95.90;;;;;;5022470;28;20471;-72
2023/01/18 10:47:10;;;;;;;;;;;3.00;95.80;;;;;;5017775;28;20720;-72
2023/01/18 10:49:38;;;;;;;;;;;3.00;95.80;;;;;;5016794;28;20335;-73
2023/01/18 10:52:16;;;;;;;;;;;3.00;95.80;;;;;;5022539;28;19929;-73
2023/01/18 10:54:49;;;;;;;;;;;3.00;95.80;;;;;;5021025;28;19990;-72
2023/01/18 10:57:19;;;;;;;;;;;3.00;95.80;;;;;;5021010;28;19936;-72
2023/01/18 10:59:46;;;;;;;;;;;3.10;95.90;;;;;;5022680;28;19936;-72
2023/01/18 11:02:18;;;;;;;;;;;3.10;95.80;;;;;;5013846;28;19933;-73
2023/01/18 11:04:45;;;;;;;;;;;3.10;95.90;;;;;;5020124;28;19933;-73
2023/01/18 11:07:12;;;;;;;;;;;3.10;95.80;;;;;;5017271;28;19933;-73
2023/01/18 11:09:42;;;;;;;;;;;3.20;95.90;;;;;;5012549;28;19936;-72
2023/01/18 11:15:16;;;;;;;;;;;3.20;96.00;;;;;;5016739;28;19936;-73
2023/01/18 11:17:43;;;;;;;;;;;3.30;96.00;;;;;;5018725;28;19939;-73
2023/01/18 11:20:14;;;;;;;;;;;3.30;95.90;;;;;;5021700;28;20307;-73
2023/01/18 11:22:53;;;;;;;;;;;3.40;95.80;;;;;;5019175;28;20394;-73
2023/01/18 11:25:19;;;;;;;;;;;3.40;95.70;;;;;;5018026;28;19929;-73
2023/01/18 11:27:48;;;;;;;;;;;3.40;95.60;;;;;;5021407;28;20341;-73
2023/01/18 11:30:19;;;;;;;;;;;3.40;95.50;;;;;;5017277;28;20328;-73
2023/01/18 11:32:46;;;;;;;;;;;3.50;95.50;;;;;;5015857;28;19972;-73
2023/01/18 11:35:21;;;;;;;;;;;3.50;95.30;;;;;;5016196;28;20398;-73
2023/01/18 11:37:47;;;;;;;;;;;3.50;95.20;;;;;;5023559;28;20697;-72
2023/01/18 11:40:25;;;;;;;;;;;3.50;95.20;;;;;;5014613;28;19991;-74
2023/01/18 11:42:57;;;;;;;;;;;3.50;95.10;;;;;;5016874;28;19940;-73
2023/01/18 11:45:25;;;;;;;;;;;3.50;94.90;;;;;;5021172;28;19935;-74
2023/01/18 11:47:55;;;;;;;;;;;3.60;94.90;;;;;;5014588;28;19929;-73
2023/01/18 11:50:28;;;;;;;;;;;3.50;94.80;;;;;;5020386;28;19972;-73
2023/01/18 11:52:56;;;;;;;;;;;3.50;94.70;;;;;;5015185;28;20467;-74
2023/01/18 11:55:30;;;;;;;;;;;3.60;94.60;;;;;;5020957;28;19936;-73
2023/01/18 11:57:58;;;;;;;;;;;3.60;94.50;;;;;;5021318;28;20000;-73
2023/01/18 12:00:27;;;;;;;;;;;3.60;94.40;;;;;;5017456;28;19937;-74
2023/01/18 12:03:05;;;;;;;;;;;3.60;94.30;;;;;;5014072;28;20369;-73
2023/01/18 12:05:40;;;;;;;;;;;3.60;94.30;;;;;;5016970;28;19933;-74
2023/01/18 12:08:14;;;;;;;;;;;3.60;94.20;;;;;;5023114;28;20528;-74
2023/01/18 12:10:47;;;;;;;;;;;3.60;94.10;;;;;;5021158;28;19957;-74
2023/01/18 12:13:32;;;;;;;;;;;3.60;94.10;;;;;;5015962;28;19933;-74
2023/01/18 12:16:03;;;;;;;;;;;3.60;94.10;;;;;;5021312;28;19948;-74
2023/01/18 12:18:48;;;;;;;;;;;3.60;94.30;;;;;;5014744;28;19952;-74
2023/01/18 12:21:20;;;;;;;;;;;3.60;94.00;;;;;;5018496;28;19963;-74
2023/01/18 12:24:02;;;;;;;;;;;3.60;94.00;;;;;;5022147;28;19980;-74
2023/01/18 12:26:33;;;;;;;;;;;3.70;94.00;;;;;;5015084;28;19933;-74
2023/01/18 12:29:10;;;;;;;;;;;3.60;93.90;;;;;;5023883;28;19929;-74
2023/01/18 12:31:43;;;;;;;;;;;3.70;94.00;;;;;;5017526;28;20440;-73
2023/01/18 12:34:13;;;;;;;;;;;3.60;93.90;;;;;;5020951;28;19929;-74
2023/01/18 12:36:46;;;;;;;;;;;3.60;93.90;;;;;;5011973;28;19932;-74
2023/01/18 12:39:19;;;;;;;;;;;3.70;93.90;;;;;;5021669;28;19983;-74
2023/01/18 12:41:50;;;;;;;;;;;3.70;93.80;;;;;;5018318;28;20442;-74
2023/01/18 12:44:27;;;;;;;;;;;3.70;93.70;;;;;;5024585;28;19968;-74
2023/01/18 12:47:00;;;;;;;;;;;3.70;93.60;;;;;;5019813;28;19940;-72
2023/01/18 12:49:29;;;;;;;;;;;3.70;93.50;;;;;;5022518;28;19936;-74
2023/01/18 12:51:57;;;;;;;;;;;3.70;93.30;;;;;;5021388;28;19984;-74
2023/01/18 12:54:27;;;;;;;;;;;3.70;93.10;;;;;;5024273;28;19929;-74
2023/01/18 12:56:54;;;;;;;;;;;3.70;92.90;;;;;;5021882;28;19933;-74
2023/01/18 12:59:24;;;;;;;;;;;3.70;92.70;;;;;;5017833;28;20652;-74
2023/01/18 13:01:54;;;;;;;;;;;3.70;92.60;;;;;;5015715;28;19988;-75
2023/01/18 13:04:23;;;;;;;;;;;3.70;92.60;;;;;;5019409;28;19987;-77
2023/01/18 13:06:52;;;;;;;;;;;3.70;92.60;;;;;;5017021;28;19936;-77
2023/01/18 13:09:21;;;;;;;;;;;3.70;92.50;;;;;;5019666;28;20014;-76
2023/01/18 13:11:48;;;;;;;;;;;3.70;92.40;;;;;;5016326;28;19936;-77
2023/01/18 13:14:18;;;;;;;;;;;3.70;92.30;;;;;;5018139;28;20298;-77
2023/01/18 13:16:50;;;;;;;;;;;3.70;92.30;;;;;;5019079;28;19929;-77
2023/01/18 13:19:19;;;;;;;;;;;3.70;92.30;;;;;;5015576;28;19955;-76
2023/01/18 13:21:55;;;;;;;;;;;3.70;92.10;;;;;;5021452;28;19934;-76
2023/01/18 13:24:29;;;;;;;;;;;3.70;92.10;;;;;;5020347;28;20406;-78
2023/01/18 13:27:05;;;;;;;;;;;3.70;92.10;;;;;;5017333;28;20000;-77
2023/01/18 13:29:32;;;;;;;;;;;3.70;92.00;;;;;;5018966;28;19933;-78
2023/01/18 13:32:00;;;;;;;;;;;3.70;92.00;;;;;;5018773;28;19936;-78
2023/01/18 13:34:31;;;;;;;;;;;3.70;91.90;;;;;;5017620;28;20054;-78
2023/01/18 13:36:58;;;;;;;;;;;3.70;92.00;;;;;;5021370;28;19935;-78
2023/01/18 13:39:25;;;;;;;;;;;3.70;92.00;;;;;;5021389;28;19935;-78
2023/01/18 13:42:06;;;;;;;;;;;3.70;92.00;;;;;;5016939;28;19929;-77
2023/01/18 13:44:37;;;;;;;;;;;3.70;91.80;;;;;;5019227;28;20032;-77
2023/01/18 13:47:27;;;;;;;;;;;3.80;91.90;;;;;;5019251;28;20621;-77
2023/01/18 13:49:54;;;;;;;;;;;3.70;91.90;;;;;;5018029;28;19936;-77
2023/01/18 13:52:30;;;;;;;;;;;3.80;91.80;;;;;;5019826;28;19936;-77
2023/01/18 13:54:59;;;;;;;;;;;3.80;91.80;;;;;;5018354;28;19944;-78
2023/01/18 13:57:26;;;;;;;;;;;3.80;91.70;;;;;;5017279;28;19999;-77
2023/01/18 13:59:53;;;;;;;;;;;3.80;91.80;;;;;;5022172;28;19933;-77
2023/01/18 14:02:25;;;;;;;;;;;3.90;91.50;;;;;;5015635;28;19929;-76
2023/01/18 14:04:59;;;;;;;;;;;3.90;91.60;;;;;;5019997;28;19933;-77
2023/01/18 14:07:26;;;;;;;;;;;4.00;91.60;;;;;;5012857;28;19929;-77
2023/01/18 14:09:52;;;;;;;;;;;4.10;91.50;;;;;;5016953;28;20314;-76
2023/01/18 14:12:34;;;;;;;;;;;4.10;91.50;;;;;;5020881;28;20383;-77
2023/01/18 14:15:01;;;;;;;;;;;4.20;91.50;;;;;;5019805;28;19925;-77
2023/01/18 14:17:31;;;;;;;;;;;4.20;91.00;;;;;;5013900;28;20526;-77
2023/01/18 14:20:09;;;;;;;;;;;4.30;91.20;;;;;;5022350;28;19933;-77
2023/01/18 14:22:47;;;;;;;;;;;4.40;90.90;;;;;;5016971;28;19995;-76
2023/01/18 14:25:24;;;;;;;;;;;4.40;90.60;;;;;;5015562;28;19937;-77
2023/01/18 14:27:57;;;;;;;;;;;4.50;90.70;;;;;;5017946;28;19933;-77
2023/01/18 14:30:26;;;;;;;;;;;4.50;90.70;;;;;;5014600;28;19933;-77
2023/01/18 14:32:57;;;;;;;;;;;4.60;90.60;;;;;;5016273;28;19933;-77
2023/01/18 14:35:24;;;;;;;;;;;4.60;90.60;;;;;;5020505;28;19929;-77
2023/01/18 14:37:51;;;;;;;;;;;4.60;90.70;;;;;;5019941;28;19929;-76
2023/01/18 14:40:20;;;;;;;;;;;4.50;90.70;;;;;;5015759;28;20528;-77
2023/01/18 14:42:49;;;;;;;;;;;4.50;90.90;;;;;;5018416;28;19932;-77
2023/01/18 14:45:20;;;;;;;;;;;4.50;90.90;;;;;;5012182;28;19929;-77
2023/01/18 14:47:48;;;;;;;;;;;4.40;90.90;;;;;;5017618;28;19929;-77
2023/01/18 14:50:16;;;;;;;;;;;4.40;91.00;;;;;;5015077;28;20501;-78
2023/01/18 14:52:44;;;;;;;;;;;4.30;91.20;;;;;;5018462;28;19937;-77
2023/01/18 14:55:22;;;;;;;;;;;4.30;91.30;;;;;;5017539;28;20025;-76
2023/01/18 14:57:50;;;;;;;;;;;4.20;91.20;;;;;;5022682;28;19936;-77
2023/01/18 15:00:17;;;;;;;;;;;4.20;91.60;;;;;;5021370;28;19929;-77
2023/01/18 15:02:45;;;;;;;;;;;4.20;91.80;;;;;;5015137;28;19945;-77
2023/01/18 15:05:12;;;;;;;;;;;4.10;91.80;;;;;;5013204;28;19929;-77
2023/01/18 15:07:39;;;;;;;;;;;4.10;91.90;;;;;;5019055;28;19928;-77
2023/01/18 15:10:08;;;;;;;;;;;4.00;92.00;;;;;;5011383;28;19929;-77
2023/01/18 15:12:35;;;;;;;;;;;4.00;92.10;;;;;;5010176;28;20024;-77
2023/01/18 15:15:05;;;;;;;;;;;4.00;92.20;;;;;;5011396;28;19937;-77